createdAt,value
2023-01-08T09:19:10.265Z,100905.81
2023-01-08T09:21:37.326Z,100906.55
2023-01-08T09:24:04.622Z,100905.65
2023-01-08T09:26:31.796Z,100903.34
2023-01-08T09:28:58.709Z,100905.42
2023-01-08T09:31:26.387Z,100899.98
2023-01-08T09:33:53.296Z,100897.37
2023-01-08T09:36:20.198Z,100891.14
2023-01-08T09:38:47.052Z,100889.15
2023-01-08T09:41:19.745Z,100889.71
2023-01-08T09:43:47.960Z,100888.42
2023-01-08T09:46:15.246Z,100889.82
2023-01-08T09:48:42.389Z,100883.61
2023-01-08T09:51:19.504Z,100880.04
2023-01-08T09:53:46.645Z,100877.10
2023-01-08T09:56:15.971Z,100871.47
2023-01-08T09:58:53.984Z,100868.11
2023-01-08T10:01:28.887Z,100871.08
2023-01-08T10:04:16.703Z,100869.06
2023-01-08T10:07:00.805Z,100862.90
2023-01-08T10:09:31.580Z,100865.52
2023-01-08T10:12:00.575Z,100866.09
2023-01-08T10:14:38.251Z,100865.86
2023-01-08T10:17:17.714Z,100868.05
2023-01-08T10:19:45.610Z,100866.81
2023-01-08T10:22:14.090Z,100865.69
2023-01-08T10:24:48.394Z,100865.79
2023-01-08T10:27:23.084Z,100868.10
2023-01-08T10:29:51.492Z,100870.65
2023-01-08T10:32:29.629Z,100870.88
2023-01-08T10:34:57.257Z,100865.88
2023-01-08T10:37:28.515Z,100864.45
2023-01-08T10:39:59.351Z,100858.27
2023-01-08T10:42:26.525Z,100854.23
2023-01-08T10:45:01.130Z,100851.80
2023-01-08T10:47:29.788Z,100850.30
2023-01-08T10:49:56.670Z,100841.23
2023-01-08T10:52:23.612Z,100844.55
2023-01-08T10:54:50.694Z,100840.23
2023-01-08T10:57:29.184Z,100838.73
2023-01-08T10:59:56.577Z,100842.23
2023-01-08T11:02:38.931Z,100844.98
2023-01-08T11:05:07.737Z,100840.30
2023-01-08T11:07:35.756Z,100844.08
2023-01-08T11:10:03.626Z,100844.46
2023-01-08T11:12:36.788Z,100838.48
2023-01-08T11:15:05.540Z,100837.85
2023-01-08T11:17:32.813Z,100833.39
2023-01-08T11:20:29.779Z,100824.95
2023-01-08T11:23:12.077Z,100828.54
2023-01-08T11:25:39.115Z,100832.36
2023-01-08T11:28:05.982Z,100830.84
2023-01-08T11:30:33.318Z,100832.98
2023-01-08T11:33:09.959Z,100838.44
2023-01-08T11:35:39.503Z,100837.97
2023-01-08T11:38:07.005Z,100836.98
2023-01-08T11:40:37.081Z,100840.77
2023-01-08T11:43:56.535Z,100842.95
2023-01-08T11:46:34.218Z,100836.25
2023-01-08T11:49:22.750Z,100833.83
2023-01-08T11:52:14.432Z,100828.54
2023-01-08T11:54:53.524Z,100837.14
2023-01-08T11:57:34.122Z,100834.08
2023-01-08T12:00:14.164Z,100829.02
2023-01-08T12:03:01.533Z,100830.20
2023-01-08T12:05:48.701Z,100839.02
2023-01-08T12:08:21.583Z,100836.23
2023-01-08T12:11:06.975Z,100828.10
2023-01-08T12:13:45.648Z,100822.52
2023-01-08T12:16:31.559Z,100820.66
2023-01-08T12:19:21.196Z,100822.59
2023-01-08T12:22:32.463Z,100815.44
2023-01-08T12:25:38.184Z,100810.31
2023-01-08T12:28:19.785Z,100810.90
2023-01-08T12:31:17.972Z,100809.89
2023-01-08T12:33:48.650Z,100807.92
2023-01-08T12:36:25.873Z,100809.70
2023-01-08T12:39:03.892Z,100806.46
2023-01-08T12:41:32.471Z,100795.90
2023-01-08T12:44:10.312Z,100797.27
2023-01-08T12:46:38.924Z,100794.23
2023-01-08T12:49:06.672Z,100799.62
2023-01-08T12:51:41.172Z,100796.52
2023-01-08T12:54:29.512Z,100790.31
2023-01-08T12:57:13.329Z,100784.46
2023-01-08T12:59:53.592Z,100791.55
2023-01-08T13:02:58.336Z,100788.11
2023-01-08T13:05:28.232Z,100790.20
2023-01-08T13:08:06.360Z,100781.48
2023-01-08T13:11:03.091Z,100784.57
2023-01-08T13:13:31.846Z,100783.66
2023-01-08T13:16:20.359Z,100789.36
2023-01-08T13:19:00.880Z,100785.83
2023-01-08T13:21:32.923Z,100784.38
2023-01-08T13:24:20.126Z,100791.69
2023-01-08T13:26:47.026Z,100788.46
2023-01-08T13:29:37.846Z,100788.40
2023-01-08T13:32:10.537Z,100796.47
2023-01-08T13:34:40.797Z,100791.68
2023-01-08T13:37:16.387Z,100792.83
2023-01-08T13:39:50.230Z,100788.75
2023-01-08T13:42:24.975Z,100787.23
2023-01-08T13:44:53.122Z,100782.57
2023-01-08T13:47:43.272Z,100773.63
2023-01-08T13:50:21.207Z,100778.91
2023-01-08T13:52:58.817Z,100788.08
2023-01-08T13:55:31.388Z,100778.30
2023-01-08T13:57:59.989Z,100777.67
2023-01-08T14:00:42.695Z,100768.48
2023-01-08T14:03:28.550Z,100762.89
2023-01-08T14:06:13.953Z,100763.32
2023-01-08T14:09:00.068Z,100754.45
2023-01-08T14:11:42.284Z,100754.20
2023-01-08T14:14:12.702Z,100749.91
2023-01-08T14:16:40.499Z,100750.19
2023-01-08T14:19:07.682Z,100742.45
2023-01-08T14:21:34.755Z,100746.77
2023-01-08T14:24:01.697Z,100746.70
2023-01-08T14:26:35.657Z,100748.08
2023-01-08T14:29:04.556Z,100741.43
2023-01-08T14:31:31.437Z,100740.80
2023-01-08T14:33:59.082Z,100737.99
2023-01-08T14:36:26.407Z,100742.95
2023-01-08T14:38:53.872Z,100737.65
2023-01-08T14:41:53.456Z,100739.05
2023-01-08T14:44:36.388Z,100739.52
2023-01-08T14:47:07.026Z,100740.32
2023-01-08T14:49:43.454Z,100742.69
2023-01-08T14:52:18.656Z,100730.05
2023-01-08T14:54:45.584Z,100737.05
2023-01-08T14:57:12.847Z,100735.96
2023-01-08T14:59:39.791Z,100736.65
2023-01-08T15:02:14.499Z,100734.05
2023-01-08T15:04:41.526Z,100734.05
2023-01-08T15:07:27.730Z,100735.39
2023-01-08T15:09:58.945Z,100735.86
2023-01-08T15:12:31.316Z,100738.94
2023-01-08T15:15:12.068Z,100734.98
2023-01-08T15:17:38.927Z,100732.70
2023-01-08T15:20:07.014Z,100736.48
2023-01-08T15:22:36.430Z,100737.47
2023-01-08T15:25:05.131Z,100735.39
2023-01-08T15:27:32.178Z,100733.52
2023-01-08T15:30:03.910Z,100728.95
2023-01-08T15:32:39.016Z,100727.61
2023-01-08T15:35:18.813Z,100739.49
2023-01-08T15:37:45.902Z,100732.41
2023-01-08T15:40:13.075Z,100728.70
2023-01-08T15:42:58.803Z,100733.39
2023-01-08T15:45:29.912Z,100732.14
2023-01-08T15:47:57.077Z,100736.02
2023-01-08T15:50:25.043Z,100743.70
2023-01-08T15:52:52.475Z,100739.02
2023-01-08T15:55:21.062Z,100734.31
2023-01-08T15:57:48.128Z,100731.07
2023-01-08T16:00:16.199Z,100729.58
2023-01-08T16:02:47.745Z,100727.76
2023-01-08T16:05:16.524Z,100730.82
2023-01-08T16:07:44.075Z,100727.61
2023-01-08T16:10:11.974Z,100722.16
2023-01-08T16:12:43.708Z,100725.14
2023-01-08T16:15:14.556Z,100725.80
2023-01-08T16:17:41.636Z,100723.09
2023-01-08T16:20:09.605Z,100723.86
2023-01-08T16:22:37.423Z,100727.44
2023-01-08T16:25:05.301Z,100722.96
2023-01-08T16:27:32.549Z,100732.34
2023-01-08T16:29:59.449Z,100728.55
2023-01-08T16:32:26.457Z,100731.24
2023-01-08T16:34:55.450Z,100734.39
2023-01-08T16:37:22.871Z,100737.71
2023-01-08T16:39:50.073Z,100739.39
2023-01-08T16:42:20.068Z,100739.89
2023-01-08T16:44:47.222Z,100738.74
2023-01-08T16:47:14.156Z,100737.86
2023-01-08T16:49:41.850Z,100734.63
2023-01-08T16:52:11.747Z,100735.38
2023-01-08T16:54:39.110Z,100734.29
2023-01-08T16:57:06.158Z,100736.23
2023-01-08T16:59:33.305Z,100739.35
2023-01-08T17:02:00.723Z,100738.29
2023-01-08T17:04:31.365Z,100734.82
2023-01-08T17:06:59.061Z,100732.83
2023-01-08T17:09:26.020Z,100735.08
2023-01-08T17:11:56.537Z,100734.33
2023-01-08T17:14:23.529Z,100732.38
2023-01-08T17:16:50.437Z,100732.73
2023-01-08T17:19:17.629Z,100734.67
2023-01-08T17:21:46.042Z,100737.38
2023-01-08T17:24:17.670Z,100731.09
2023-01-08T17:26:44.884Z,100732.92
2023-01-08T17:29:11.878Z,100734.98
2023-01-08T17:31:41.745Z,100735.55
2023-01-08T17:34:11.540Z,100736.58
2023-01-08T17:36:38.641Z,100730.92
2023-01-08T17:39:05.638Z,100734.63
2023-01-08T17:41:51.275Z,100740.98
2023-01-08T17:44:18.283Z,100738.02
2023-01-08T17:46:48.857Z,100736.13
2023-01-08T17:49:16.455Z,100734.02
2023-01-08T17:51:43.827Z,100734.10
2023-01-08T17:54:12.045Z,100735.61
2023-01-08T17:56:39.066Z,100741.10
2023-01-08T17:59:06.214Z,100737.52
2023-01-08T18:01:35.084Z,100735.57
2023-01-08T18:04:02.750Z,100736.89
2023-01-08T18:06:29.663Z,100734.30
2023-01-08T18:08:56.897Z,100735.30
2023-01-08T18:11:25.535Z,100736.31
2023-01-08T18:13:59.589Z,100732.86
2023-01-08T18:16:26.711Z,100731.24
2023-01-08T18:18:55.950Z,100731.33
2023-01-08T18:21:23.168Z,100723.36
2023-01-08T18:23:50.632Z,100719.08
2023-01-08T18:26:18.741Z,100717.52
2023-01-08T18:28:45.810Z,100720.55
2023-01-08T18:31:13.094Z,100724.02
2023-01-08T18:33:40.191Z,100720.14
2023-01-08T18:36:11.992Z,100718.59
2023-01-08T18:38:43.253Z,100718.59
2023-01-08T18:41:12.094Z,100719.46
2023-01-08T18:43:39.040Z,100718.82
2023-01-08T18:46:07.336Z,100714.09
2023-01-08T18:48:34.831Z,100718.49
2023-01-08T18:51:05.934Z,100717.48
2023-01-08T18:53:33.465Z,100712.43
2023-01-08T18:56:01.523Z,100708.88
2023-01-08T18:58:28.837Z,100708.95
2023-01-08T19:01:04.038Z,100707.90
2023-01-08T19:03:31.112Z,100704.69
2023-01-08T19:05:58.139Z,100708.73
2023-01-08T19:08:25.560Z,100704.35
2023-01-08T19:10:52.528Z,100704.23
2023-01-08T19:13:19.418Z,100704.70
2023-01-08T19:15:46.874Z,100701.63
2023-01-08T19:18:14.120Z,100702.43
2023-01-08T19:20:43.498Z,100703.60
2023-01-08T19:23:10.490Z,100694.74
2023-01-08T19:25:43.220Z,100693.85
2023-01-08T19:28:10.785Z,100694.61
2023-01-08T19:30:37.755Z,100694.80
2023-01-08T19:33:04.629Z,100698.04
2023-01-08T19:35:38.932Z,100694.97
2023-01-08T19:38:05.891Z,100695.20
2023-01-08T19:40:34.352Z,100690.98
2023-01-08T19:43:20.357Z,100688.22
2023-01-08T19:45:47.380Z,100683.86
2023-01-08T19:48:14.390Z,100680.30
2023-01-08T19:50:41.372Z,100681.06
2023-01-08T19:53:09.205Z,100687.23
2023-01-08T19:55:37.539Z,100692.69
2023-01-08T19:58:04.563Z,100693.89
2023-01-08T20:00:37.534Z,100694.02
2023-01-08T20:03:05.669Z,100701.84
2023-01-08T20:05:32.854Z,100697.53
2023-01-08T20:07:59.843Z,100698.86
2023-01-08T20:10:26.883Z,100696.08
2023-01-08T20:12:53.768Z,100693.73
2023-01-08T20:15:22.100Z,100683.02
2023-01-08T20:17:49.103Z,100680.02
2023-01-08T20:20:16.311Z,100679.34
2023-01-08T20:22:43.255Z,100678.62
2023-01-08T20:25:10.464Z,100679.58
2023-01-08T20:27:37.473Z,100679.80
2023-01-08T20:30:05.503Z,100675.84
2023-01-08T20:32:32.754Z,100678.55
2023-01-08T20:34:59.628Z,100677.70
2023-01-08T20:37:26.590Z,100676.95
2023-01-08T20:39:53.822Z,100678.67
2023-01-08T20:42:32.882Z,100678.08
2023-01-08T20:45:00.889Z,100673.60
2023-01-08T20:47:27.836Z,100673.55
2023-01-08T20:49:54.819Z,100672.41
2023-01-08T20:52:21.762Z,100668.75
2023-01-08T20:54:48.667Z,100675.92
2023-01-08T20:57:15.653Z,100671.90
2023-01-08T20:59:42.923Z,100664.33
2023-01-08T21:02:11.499Z,100664.98
2023-01-08T21:04:41.616Z,100667.76
2023-01-08T21:07:08.645Z,100666.48
2023-01-08T21:10:52.932Z,100660.54
2023-01-08T21:18:18.492Z,100644.77
2023-01-08T21:30:26.401Z,100653.05
2023-01-08T21:32:53.796Z,100652.80
2023-01-08T21:35:20.826Z,100657.20
2023-01-08T21:37:47.763Z,100649.59
2023-01-08T21:40:15.578Z,100642.42
2023-01-08T21:43:01.249Z,100637.46
2023-01-08T21:45:29.553Z,100635.30
2023-01-08T21:47:58.635Z,100631.39
2023-01-08T21:50:25.908Z,100631.21
2023-01-08T21:53:11.620Z,100628.38
2023-01-08T21:55:38.500Z,100634.99
2023-01-08T21:58:05.559Z,100629.14
2023-01-08T22:00:32.635Z,100632.06
2023-01-08T22:02:59.664Z,100618.63
2023-01-08T22:05:27.009Z,100600.94
2023-01-08T22:07:54.089Z,100592.98
2023-01-08T22:10:21.046Z,100600.39
2023-01-08T22:12:48.059Z,100596.19
2023-01-08T22:15:15.882Z,100606.28
2023-01-08T22:17:42.804Z,100594.31
2023-01-08T22:20:11.153Z,100587.15
2023-01-08T22:22:38.877Z,100592.07
2023-01-08T22:25:06.930Z,100589.34
2023-01-08T22:27:33.940Z,100581.20
2023-01-08T22:30:00.826Z,100575.42
2023-01-08T22:32:27.752Z,100572.79
2023-01-08T22:34:55.016Z,100578.32
2023-01-08T22:37:22.359Z,100577.07
2023-01-08T22:39:49.504Z,100578.72
2023-01-08T22:42:17.133Z,100575.13
2023-01-08T22:44:50.471Z,100574.88
2023-01-08T22:47:17.427Z,100568.22
2023-01-08T22:49:44.321Z,100569.95
2023-01-08T22:52:14.547Z,100566.40
2023-01-08T22:54:41.540Z,100571.24
2023-01-08T22:57:08.445Z,100564.63
2023-01-08T22:59:35.447Z,100562.36
2023-01-08T23:02:02.353Z,100559.89
2023-01-08T23:04:29.227Z,100562.08
2023-01-08T23:06:56.185Z,100561.45
2023-01-08T23:09:23.024Z,100554.55
2023-01-08T23:11:49.962Z,100560.67
2023-01-08T23:14:16.927Z,100561.06
2023-01-08T23:16:44.075Z,100556.89
2023-01-08T23:19:11.204Z,100548.85
2023-01-08T23:21:38.734Z,100544.13
2023-01-08T23:24:07.614Z,100543.71
2023-01-08T23:26:34.555Z,100544.34
2023-01-08T23:29:01.632Z,100539.18
2023-01-08T23:31:29.271Z,100526.58
2023-01-08T23:33:56.349Z,100526.91
2023-01-08T23:36:23.426Z,100523.95
2023-01-08T23:39:40.174Z,100522.83
2023-01-08T23:45:16.871Z,100512.52
2023-01-08T23:47:43.806Z,100509.46
2023-01-08T23:50:11.303Z,100511.67
2023-01-08T23:52:38.276Z,100513.32
2023-01-08T23:55:05.603Z,100512.44
2023-01-08T23:57:32.453Z,100517.22
2023-01-08T23:59:59.420Z,100517.08
